»·PEaware :: N21056 KTOA-KVNY

N21056 :: KTOA-KVNY

FLIGHT INFORMATION

Flight Status: Arrived
Operator: Privately registered:
United States
More flights under this callsign
Pilot: Erik K. (18332)
Aircraft: CESSNA 172 SKYHAWK
(C172)
More flights by this aircraft type
Origin: KTOA Zamperini
United States
Destination: KVNY Van Nuys
United States
More flights between these airports :: More routes between these airports
Route: +MININ
File this flight plan on PilotEdge
Remarks:
Altitude:
(Current/Filed)
0ft
Speed:
(Current/Filed)
0kts
Departed: 28-Mar-18 09:15 AM
Arrived: 28-Mar-18 09:34 AM
Distance/Time
Traveled:
26nm/0:19
Distance/Time
To Go:
Arrived

Flight Plot

Page will automatically refresh every two minutes.

Flight plan parsing failed; only flown route is shown


Map Options




Map Legend


Flown Route
Filed Route
Departure Airport
Arrival Airport
Navaid (VOR, NDB)
Fix

Horizontal Profiles

Position Reports

Time Latitude Longitude Heading Altitude Ground
Speed
28-Mar-18 08:48 33.803347 -118.344051 39 102ft 0kts
28-Mar-18 08:49 33.803347 -118.344051 39 102ft 0kts
28-Mar-18 08:50 33.803347 -118.344051 39 102ft 0kts
28-Mar-18 08:51 33.803347 -118.344051 39 102ft 0kts
28-Mar-18 08:52 33.803347 -118.344051 39 102ft 0kts
28-Mar-18 08:53 33.803362 -118.343629 127 102ft 11kts
28-Mar-18 08:54 33.802754 -118.341607 137 101ft 10kts
28-Mar-18 08:55 33.799412 -118.336625 127 104ft 21kts
28-Mar-18 08:56 33.798412 -118.333830 62 103ft 14kts
28-Mar-18 08:57 33.798549 -118.333494 42 102ft 0kts
28-Mar-18 08:58 33.798549 -118.333494 42 102ft 0kts
28-Mar-18 08:59 33.798549 -118.333494 42 102ft 0kts
28-Mar-18 09:00 33.798549 -118.333494 42 102ft 0kts
28-Mar-18 09:01 33.798549 -118.333494 42 102ft 0kts
28-Mar-18 09:02 33.798549 -118.333494 42 102ft 0kts
28-Mar-18 09:03 33.798549 -118.333494 42 102ft 0kts
28-Mar-18 09:04 33.798549 -118.333494 41 102ft 0kts
28-Mar-18 09:05 33.798549 -118.333494 41 102ft 0kts
28-Mar-18 09:06 33.798549 -118.333494 41 102ft 0kts
28-Mar-18 09:07 33.798549 -118.333494 41 102ft 0kts
28-Mar-18 09:08 33.798549 -118.333494 41 102ft 0kts
28-Mar-18 09:09 33.798567 -118.333474 40 102ft 0kts
28-Mar-18 09:10 33.798567 -118.333474 40 102ft 0kts
28-Mar-18 09:11 33.798567 -118.333474 40 102ft 0kts
28-Mar-18 09:12 33.798671 -118.333399 28 102ft 7kts
28-Mar-18 09:13 33.799551 -118.332971 356 99ft 9kts
28-Mar-18 09:14 33.807496 -118.346844 291 624ft 69kts
28-Mar-18 09:15 33.819144 -118.366906 321 1599ft 77kts
28-Mar-18 09:16 33.839257 -118.361980 13 2385ft 82kts
28-Mar-18 09:17 33.866044 -118.352852 6 2418ft 116kts
28-Mar-18 09:18 33.896180 -118.361685 329 2417ft 119kts
28-Mar-18 09:19 33.922671 -118.381076 328 2311ft 112kts
28-Mar-18 09:20 33.946607 -118.399128 327 2298ft 101kts
28-Mar-18 09:21 33.969937 -118.416768 327 2298ft 100kts
28-Mar-18 09:22 33.993881 -118.434847 328 2298ft 105kts
28-Mar-18 09:23 34.019133 -118.451739 348 2297ft 106kts
28-Mar-18 09:24 34.047846 -118.457753 350 2298ft 106kts
28-Mar-18 09:25 34.076662 -118.463505 350 2298ft 106kts
28-Mar-18 09:26 34.104832 -118.469112 351 2304ft 101kts
28-Mar-18 09:27 34.130604 -118.480308 325 2310ft 101kts
28-Mar-18 09:28 34.156394 -118.490696 346 2431ft 98kts
28-Mar-18 09:29 34.182881 -118.499763 345 2065ft 92kts
28-Mar-18 09:30 34.206031 -118.505337 348 1841ft 84kts
28-Mar-18 09:31 34.224106 -118.503500 78 1580ft 70kts
28-Mar-18 09:32 34.216957 -118.491079 170 859ft 56kts
28-Mar-18 09:33 34.210494 -118.491673 355 779ft 7kts
28-Mar-18 09:34 34.211173 -118.491722 358 781ft 0kts
28-Mar-18 09:35 34.212585 -118.491857 356 785ft 9kts
28-Mar-18 09:36 34.215862 -118.492166 354 794ft 14kts
28-Mar-18 09:37 34.218455 -118.492311 14 798ft 0kts
28-Mar-18 09:38 34.218455 -118.492311 14 798ft 0kts
28-Mar-18 09:39 34.218455 -118.492311 14 798ft 0kts
28-Mar-18 09:40 34.218455 -118.492311 14 798ft 0kts
28-Mar-18 09:41 34.218455 -118.492311 14 798ft 0kts
28-Mar-18 09:42 34.218455 -118.492311 14 798ft 0kts
28-Mar-18 09:43 34.218455 -118.492311 14 798ft 0kts
28-Mar-18 09:44 34.218455 -118.492311 14 798ft 0kts
28-Mar-18 09:45 34.218455 -118.492311 14 798ft 0kts
28-Mar-18 09:46 34.218455 -118.492311 14 798ft 0kts
28-Mar-18 09:47 34.218455 -118.492311 14 798ft 0kts

Navigation Log

Ident Type
Flight plan parsing failed, navigation log unavailable